LEZGLETO

Guest
Details From LEZG - Zaragoza AB
To LETO - Torrejon
Flight Number -
Tags generated
Created
Modified
Stats Distance 129 nm / 240 km
Max Altitude 200 ft / 61 m
Waypoints 3
Social Downloads 1
Likes 0
Share VATSIM

Download

Looking for another format? Having issues loading an existing format? Contact us
Advertisement - Login to hide

Notes

Basic altitude profile: - Ascent Rate: 2500ft/min - Ascent Speed: 250kts - Cruise Altitude: 200ft - Cruise Speed: 420kts - Descent Rate: 1500ft/min - Descent Speed: 250kts

Route

LEZG SEGRE LETO

ID Type Via Altitude Latitude Longitude Leg Dist Tot Dist Heading (true) Name
O LEZG APT - 0 ft / 0 m 41.66703˚ -1.04356˚ - 0 nm - Zaragoza AB
SEGRE FIX - 200 ft / 61 m 41.02283˚ -2.37646˚ 71 nm 71 nm 238° / 237° -
O LETO APT - 0 ft / 0 m 40.49675˚ -3.44587˚ 58 nm 129 nm 237° / 237° Torrejon

Altitude Profile

Advertisement - Login to hide

LEZG

Details ICAO LEZG (ZAZ)
Name Zaragoza AB
Region Spain
Timezone Europe/Madrid (UTC+1.0)
Stats Elevation 862 ft / 263 m (AMSL)
Location 41.667030° -1.043559°
Runways 2
Magnetic Variation 0.011° W

METAR

LEZG 161100Z 30021KT 270V340 9999 FEW040 09/03 Q1021

Decode

TAF

TAF LEZG 160500Z 1606/1706 29010KT 9999 FEW030 TX11/1613Z TN03/1606Z PROB30 TEMPO 1612/1618 30015G25KT

Decode

Departure Runways

ID Width Length Bearing (true) Bearing (mag) Surface Threshold Offset Overrun Length
12L 148 ft / 45 m 9,934 ft / 3,028 m 120.12° 120.13° Asphalt 0 ft / 0 m 984 ft / 300 m
12R 148 ft / 45 m 12,181 ft / 3,713 m 120.10° 120.11° Asphalt 0 ft / 0 m 984 ft / 300 m
30L 148 ft / 45 m 12,181 ft / 3,713 m 300.12° 300.13° Asphalt 0 ft / 0 m 984 ft / 300 m
30R 148 ft / 45 m 9,934 ft / 3,028 m 300.14° 300.15° Asphalt 0 ft / 0 m 607 ft / 185 m

LETO

Details ICAO LETO (TOJ)
Name Torrejon
Region Spain
Timezone Europe/Madrid (UTC+1.0)
Stats Elevation 2,025 ft / 617 m (AMSL)
Location 40.496746° -3.445870°
Runways 1
Magnetic Variation 0.652° W

METAR

LETO 161100Z 35008KT 320V030 CAVOK 08/M01 Q1022 NOSIG

Decode

TAF

TAF LETO 160500Z 1606/1706 VRB05KT CAVOK TX11/1615Z TNM01/1607Z TEMPO 1611/1620 36010G20KT

Decode

Destination Runways

ID Width Length Bearing (true) Bearing (mag) Surface Threshold Offset Overrun Length
05 217 ft / 66 m 12,004 ft / 3,659 m 43.28° 43.93° Asphalt 0 ft / 0 m 2,739 ft / 835 m
23 217 ft / 66 m 12,004 ft / 3,659 m 223.30° 223.95° Asphalt 0 ft / 0 m 1,066 ft / 325 m

Approach Navaids

Runway Type Ident Frequency Range Bearing (true) Bearing (mag) Slope Elevation
23 Localiser ITJA 109.50 MHz 18 nm / 33 km 223.26° 223.92° - 2,025 ft / 617 m (AMSL)
23 Glidescope ITJA 109.50 MHz 10 nm / 19 km 223.29° 223.94° 3.00° 2,025 ft / 617 m (AMSL)
23 DME ITJA 109.50 MHz 18 nm / 33 km - - - 2,011 ft / 613 m (AMSL)

Popular Alternatives